Portada
METAR-TAF:

METAR-TAF

Aeroports :

Anderson, Indiana, Estats Units d'Amèrica

latitud: 40-07N, longitud: 085-37W, altitud: 280 m

Observació

L'informe es va fer fa 3 hores i 4 minuts, a les 22:15 UTC
Vent 10 kt del Oest amb ràfegues de 17 kt, variant entre Oest/Sud-Oest i Oest/Nord-Oest
Temperatura 21°C
Humitat 40%
Pressió 1010 hPa
Visibilitat: 16.1 km
Núvols disperses a una alçada de 5000 ft
Cel ennuvolat a una alçada de 6500 ft

METAR: KAID 172215Z AUTO 28010G17KT 240V300 10SM SCT050 BKN065 21/07 A2982 RMK AO2 T02060074

Hora: 21:19 (01:19 UTC)


TAF: manca

Observacions i pronòstics meteorològics de més de 4000 aeroports (METAR i TAF).

Les estacions disponibles són els punts grocs i vermells al mapa.

Posi el ratolí al punt desitjat per veure el nom de l'estació.

Feu clic per veure les observacions i els pronòstics meteorològics.

Per canviar el mapa: feu clic els botons verds amb una creu de color negre per apropar; al botó verd amb un guió per allunyar la imatge; o en les fletxes verdes per a mapes adjacents.


METAR-TAF: